Time;durP1;ratioP1;P1;durP2;ratioP2;P2;SDS_P1;SDS_P2;PMS_P1;PMS_P2;Temp;Humidity;BMP_temperature;BMP_pressure;BME280_temperature;BME280_humidity;BME280_pressure;Samples;Min_cycle;Max_cycle;Signal;HPM_P1;HPM_P2
2022/12/10 00:02:10;;;;;;;62.13;31.88;;;-0.80;99.90;;;;;;5092443;28;20035;-64
2022/12/10 00:04:36;;;;;;;62.90;31.45;;;-0.90;99.90;;;;;;5089228;28;20087;-64
2022/12/10 00:07:01;;;;;;;63.05;29.38;;;-1.00;99.90;;;;;;5074219;28;20081;-64
2022/12/10 00:09:27;;;;;;;62.58;30.42;;;-1.10;99.90;;;;;;5096717;28;20072;-63
2022/12/10 00:11:52;;;;;;;54.38;25.55;;;-1.10;99.90;;;;;;5088927;28;20431;-64
2022/12/10 00:14:18;;;;;;;49.10;23.25;;;-1.10;99.90;;;;;;5090823;28;20032;-64
2022/12/10 00:16:43;;;;;;;44.05;21.85;;;-1.10;99.90;;;;;;5091378;28;20034;-64
2022/12/10 00:19:09;;;;;;;39.72;20.65;;;-1.10;99.90;;;;;;5088707;28;20058;-64
2022/12/10 00:21:36;;;;;;;43.40;20.60;;;-1.00;99.90;;;;;;5091601;28;20454;-64
2022/12/10 00:24:02;;;;;;;45.10;21.50;;;-1.00;99.90;;;;;;5088169;28;20032;-65
2022/12/10 00:26:31;;;;;;;46.90;23.55;;;-1.00;99.90;;;;;;5088533;28;20054;-65
2022/12/10 00:28:57;;;;;;;58.33;28.73;;;-1.00;99.90;;;;;;5070878;28;20020;-64
2022/12/10 00:31:31;;;;;;;53.40;26.88;;;-1.00;99.90;;;;;;5096253;28;20069;-65
2022/12/10 00:34:00;;;;;;;54.80;26.70;;;-1.10;99.90;;;;;;5088363;28;20494;-65
2022/12/10 00:36:34;;;;;;;62.25;28.33;;;-1.10;99.90;;;;;;5088595;28;20035;-65
2022/12/10 00:39:00;;;;;;;54.42;26.92;;;-1.10;99.90;;;;;;5073204;28;20819;-65
2022/12/10 00:41:26;;;;;;;60.90;28.20;;;-1.10;99.90;;;;;;5091643;28;20027;-64
2022/12/10 00:43:51;;;;;;;68.28;33.00;;;-1.10;99.90;;;;;;5088422;28;20036;-64
2022/12/10 00:46:18;;;;;;;67.03;32.58;;;-1.20;99.90;;;;;;5072574;28;20048;-64
2022/12/10 00:48:44;;;;;;;61.72;29.80;;;-1.20;99.90;;;;;;5089219;28;20103;-65
2022/12/10 00:51:13;;;;;;;58.33;28.60;;;-1.20;99.90;;;;;;5090705;28;20491;-65
2022/12/10 00:53:40;;;;;;;54.30;26.90;;;-1.20;99.90;;;;;;5091026;28;20497;-63
2022/12/10 00:56:07;;;;;;;60.67;27.55;;;-1.20;99.90;;;;;;5091108;28;20043;-64
2022/12/10 00:58:34;;;;;;;62.08;29.05;;;-1.10;99.90;;;;;;5088264;28;20017;-64
2022/12/10 01:01:26;;;;;;;61.08;28.58;;;-1.10;99.90;;;;;;5090577;28;20028;-64
2022/12/10 01:03:56;;;;;;;65.03;29.75;;;-1.10;99.90;;;;;;5088707;28;20020;-64
2022/12/10 01:06:22;;;;;;;64.13;32.08;;;-1.20;99.90;;;;;;5090778;28;20013;-64
2022/12/10 01:08:50;;;;;;;68.40;31.48;;;-1.20;99.90;;;;;;5088365;28;20587;-63
2022/12/10 01:11:18;;;;;;;66.72;31.73;;;-1.30;99.90;;;;;;5088874;28;20489;-64
2022/12/10 01:13:44;;;;;;;64.40;29.23;;;-1.30;99.90;;;;;;5088207;28;20054;-64
2022/12/10 01:16:12;;;;;;;70.20;31.70;;;-1.30;99.90;;;;;;5088166;28;20497;-64
2022/12/10 01:18:38;;;;;;;68.75;33.10;;;-1.40;99.90;;;;;;5088348;28;20036;-64
2022/12/10 01:21:07;;;;;;;68.03;32.75;;;-1.40;99.90;;;;;;5087899;28;20024;-64
2022/12/10 01:23:40;;;;;;;62.78;31.05;;;-1.40;99.90;;;;;;5090717;28;20047;-63
2022/12/10 01:26:09;;;;;;;62.70;30.50;;;-1.40;99.90;;;;;;5088402;28;20055;-65
2022/12/10 01:28:36;;;;;;;62.45;29.98;;;-1.40;99.90;;;;;;5071510;28;20028;-64
2022/12/10 01:31:08;;;;;;;64.65;30.40;;;-1.40;99.90;;;;;;5087970;28;20052;-64
2022/12/10 01:33:35;;;;;;;69.90;32.13;;;-1.40;99.90;;;;;;5087718;28;20122;-63
2022/12/10 01:36:08;;;;;;;66.35;31.75;;;-1.40;99.90;;;;;;5090665;28;20131;-64
2022/12/10 01:38:34;;;;;;;63.30;29.58;;;-1.40;99.90;;;;;;5087964;28;20469;-64
2022/12/10 01:41:00;;;;;;;63.58;30.17;;;-1.40;99.90;;;;;;5089173;28;20045;-63
2022/12/10 01:43:26;;;;;;;59.85;29.92;;;-1.40;99.90;;;;;;5094293;28;20159;-64
2022/12/10 01:45:52;;;;;;;62.78;32.15;;;-1.40;99.90;;;;;;5091709;28;20046;-64
2022/12/10 01:48:18;;;;;;;71.40;32.85;;;-1.40;99.90;;;;;;5091584;28;20405;-63
2022/12/10 01:50:44;;;;;;;82.03;38.10;;;-1.40;99.90;;;;;;5091294;28;20035;-63
2022/12/10 01:53:13;;;;;;;78.72;35.75;;;-1.40;99.90;;;;;;5096368;27;20023;-63
2022/12/10 01:55:50;;;;;;;82.15;36.83;;;-1.50;99.90;;;;;;5073299;28;20032;-63
2022/12/10 01:58:18;;;;;;;76.05;35.80;;;-1.50;99.90;;;;;;5085272;28;20028;-64
2022/12/10 02:00:51;;;;;;;76.50;34.25;;;-1.50;99.90;;;;;;5091189;28;20483;-64
2022/12/10 02:03:31;;;;;;;71.45;34.60;;;-1.50;99.90;;;;;;5095915;28;20054;-64
2022/12/10 02:06:13;;;;;;;69.22;32.80;;;-1.60;99.90;;;;;;5072905;28;20073;-64
2022/12/10 02:08:51;;;;;;;73.00;32.30;;;-1.50;99.90;;;;;;5093223;28;20024;-66
2022/12/10 02:11:44;;;;;;;66.50;29.95;;;-1.50;99.90;;;;;;5122133;27;20436;-64
2022/12/10 02:14:18;;;;;;;61.97;28.02;;;-1.50;99.90;;;;;;5084079;27;20108;-63
2022/12/10 02:16:53;;;;;;;59.35;26.95;;;-1.40;99.90;;;;;;5093525;28;20545;-64
2022/12/10 02:19:56;;;;;;;63.40;30.00;;;-1.40;99.90;;;;;;5093547;27;20441;-63
2022/12/10 02:22:25;;;;;;;66.43;30.15;;;-1.30;99.90;;;;;;5091373;28;20043;-64
2022/12/10 02:24:52;;;;;;;65.32;29.90;;;-1.30;99.90;;;;;;5095775;28;20031;-64
2022/12/10 02:27:26;;;;;;;62.85;28.60;;;-1.30;99.90;;;;;;5101133;27;20024;-64
2022/12/10 02:29:53;;;;;;;60.13;29.48;;;-1.30;99.90;;;;;;5090849;28;20043;-64
2022/12/10 02:32:31;;;;;;;73.03;32.25;;;-1.30;99.90;;;;;;5072952;28;20034;-64
2022/12/10 02:35:00;;;;;;;66.47;32.78;;;-1.20;99.90;;;;;;5090630;28;20570;-64
2022/12/10 02:37:35;;;;;;;63.67;30.27;;;-1.20;99.90;;;;;;5093278;28;20023;-64
2022/12/10 02:40:09;;;;;;;66.80;29.83;;;-1.20;99.90;;;;;;5090689;28;20035;-64
2022/12/10 02:42:38;;;;;;;60.58;30.02;;;-1.20;99.90;;;;;;5092975;28;20070;-64
2022/12/10 02:45:05;;;;;;;59.08;27.90;;;-1.20;99.90;;;;;;5093477;27;20042;-63
2022/12/10 02:47:31;;;;;;;55.92;26.92;;;-1.20;99.90;;;;;;5093177;28;20035;-63
2022/12/10 02:49:58;;;;;;;49.20;24.58;;;-1.20;99.90;;;;;;5072886;28;20081;-64
2022/12/10 02:52:25;;;;;;;62.10;29.85;;;-1.10;99.90;;;;;;5090541;28;20024;-64
2022/12/10 02:54:51;;;;;;;71.13;30.63;;;-1.20;99.90;;;;;;5074117;28;20032;-64
2022/12/10 02:57:28;;;;;;;69.60;30.30;;;-1.20;99.90;;;;;;5094431;28;20159;-64
2022/12/10 03:00:18;;;;;;;65.82;32.75;;;-1.20;99.90;;;;;;5090234;28;20492;-64
2022/12/10 03:03:11;;;;;;;72.10;32.33;;;-1.20;99.90;;;;;;5075585;28;20397;-64
2022/12/10 03:05:42;;;;;;;66.07;31.10;;;-1.30;99.90;;;;;;5091607;28;20310;-64
2022/12/10 03:08:28;;;;;;;70.80;33.30;;;-1.40;99.90;;;;;;5071824;28;20020;-64
2022/12/10 03:11:13;;;;;;;74.05;34.53;;;-1.30;99.90;;;;;;5089720;28;20027;-64
2022/12/10 03:13:49;;;;;;;75.60;34.17;;;-1.40;99.90;;;;;;5090078;28;20024;-63
2022/12/10 03:16:16;;;;;;;65.35;30.55;;;-1.40;99.90;;;;;;5092652;28;20095;-64
2022/12/10 03:18:44;;;;;;;71.75;33.13;;;-1.40;99.90;;;;;;5072244;28;20027;-64
2022/12/10 03:21:10;;;;;;;60.63;29.75;;;-1.40;99.90;;;;;;5090058;28;20024;-63
2022/12/10 03:23:40;;;;;;;67.80;31.75;;;-1.50;99.90;;;;;;5092778;28;20473;-63
2022/12/10 03:26:06;;;;;;;69.00;32.15;;;-1.40;99.90;;;;;;5089945;28;20034;-64
2022/12/10 03:28:39;;;;;;;59.92;29.60;;;-1.40;99.90;;;;;;5090611;28;20020;-63
2022/12/10 03:31:07;;;;;;;53.85;26.63;;;-1.40;99.90;;;;;;5108132;27;20031;-64
2022/12/10 03:33:33;;;;;;;65.43;29.70;;;-1.50;99.90;;;;;;5114323;27;20043;-66
2022/12/10 03:35:59;;;;;;;55.83;27.75;;;-1.40;99.90;;;;;;5090318;28;20016;-65
2022/12/10 03:38:25;;;;;;;60.95;27.13;;;-1.40;99.90;;;;;;5090810;28;20055;-64
2022/12/10 03:40:51;;;;;;;56.65;27.52;;;-1.40;99.90;;;;;;5089566;28;20485;-64
2022/12/10 03:43:16;;;;;;;59.65;29.10;;;-1.30;99.90;;;;;;5093671;28;20026;-64
2022/12/10 03:45:42;;;;;;;58.83;26.77;;;-1.30;99.90;;;;;;5093170;28;20149;-63
2022/12/10 03:48:07;;;;;;;55.88;27.42;;;-1.30;99.90;;;;;;5089084;28;20020;-64
2022/12/10 03:50:33;;;;;;;66.15;30.17;;;-1.30;99.90;;;;;;5071126;28;20020;-63
2022/12/10 03:52:58;;;;;;;66.18;31.65;;;-1.30;99.90;;;;;;5092072;28;20062;-63
2022/12/10 03:55:24;;;;;;;73.07;34.30;;;-1.40;99.90;;;;;;5089152;28;20523;-63
2022/12/10 03:57:49;;;;;;;72.45;34.03;;;-1.40;99.90;;;;;;5089035;28;20030;-63
2022/12/10 04:00:15;;;;;;;72.35;34.25;;;-1.40;99.90;;;;;;5089267;28;20032;-63
2022/12/10 04:02:41;;;;;;;69.53;33.28;;;-1.50;99.90;;;;;;5089194;28;20047;-62
2022/12/10 04:05:07;;;;;;;64.93;31.20;;;-1.50;99.90;;;;;;5094037;28;20024;-63
2022/12/10 04:07:33;;;;;;;60.47;28.77;;;-1.40;99.90;;;;;;5070749;28;20520;-63
2022/12/10 04:09:59;;;;;;;64.70;30.85;;;-1.40;99.90;;;;;;5089125;28;20028;-62
2022/12/10 04:12:24;;;;;;;74.57;32.08;;;-1.40;99.90;;;;;;5089124;28;20020;-63
2022/12/10 04:17:34;;;;;;;72.97;33.50;;;-1.30;99.90;;;;;;5091280;27;20496;-62
2022/12/10 04:19:59;;;;;;;64.35;29.88;;;-1.30;99.90;;;;;;5091908;28;20020;-63
2022/12/10 04:27:56;;;;;;;69.30;30.77;;;-1.30;99.90;;;;;;5094404;28;20062;-62
2022/12/10 04:30:22;;;;;;;71.78;31.13;;;-1.30;99.90;;;;;;5112672;27;20206;-62
2022/12/10 04:32:47;;;;;;;67.32;28.60;;;-1.30;99.90;;;;;;5070182;28;20545;-64
2022/12/10 04:35:13;;;;;;;71.05;30.60;;;-1.30;99.90;;;;;;5088286;28;20082;-64
2022/12/10 04:37:39;;;;;;;69.65;31.25;;;-1.20;99.90;;;;;;5091432;28;20058;-63
2022/12/10 04:40:05;;;;;;;71.13;30.27;;;-1.30;99.90;;;;;;5090489;28;20036;-63
2022/12/10 04:42:31;;;;;;;66.72;28.10;;;-1.30;99.90;;;;;;5091162;28;20056;-63
2022/12/10 04:44:56;;;;;;;75.70;32.25;;;-1.20;99.90;;;;;;5091095;28;20051;-64
2022/12/10 04:47:22;;;;;;;89.65;39.42;;;-1.30;99.90;;;;;;5088709;28;20019;-64
2022/12/10 04:49:47;;;;;;;83.30;35.72;;;-1.30;99.90;;;;;;5088461;28;20020;-63
2022/12/10 04:52:15;;;;;;;80.57;34.78;;;-1.30;99.90;;;;;;5091024;28;20070;-63
2022/12/10 04:54:41;;;;;;;75.57;33.95;;;-1.30;99.90;;;;;;5091359;28;20028;-64
2022/12/10 04:57:07;;;;;;;89.10;39.45;;;-1.30;99.90;;;;;;5090921;28;20053;-63
2022/12/10 04:59:34;;;;;;;96.43;42.00;;;-1.40;99.90;;;;;;5088249;28;20024;-62
2022/12/10 05:02:00;;;;;;;86.88;37.95;;;-1.50;99.90;;;;;;5088448;28;20028;-62
2022/12/10 05:04:25;;;;;;;91.63;41.15;;;-1.60;99.90;;;;;;5092241;28;20542;-63
2022/12/10 05:06:51;;;;;;;85.50;38.33;;;-1.60;99.90;;;;;;5088210;28;20029;-63
2022/12/10 05:09:17;;;;;;;85.07;37.08;;;-1.70;99.90;;;;;;5112600;28;20020;-63
2022/12/10 05:11:44;;;;;;;84.97;38.90;;;-1.70;99.90;;;;;;5072694;28;20045;-63
2022/12/10 05:14:12;;;;;;;94.57;40.35;;;-1.80;99.90;;;;;;5070008;28;20508;-63
2022/12/10 05:16:37;;;;;;;85.45;36.30;;;-1.80;99.90;;;;;;5090169;28;20028;-62
2022/12/10 05:19:03;;;;;;;82.15;34.55;;;-1.90;99.90;;;;;;5099205;27;20569;-63
2022/12/10 05:24:14;;;;;;;84.25;31.38;;;-1.80;99.90;;;;;;5092444;28;20078;-64
2022/12/10 05:26:40;;;;;;;74.38;28.98;;;-1.80;99.90;;;;;;5096335;28;20028;-63
2022/12/10 05:29:07;;;;;;;91.20;36.53;;;-1.80;99.90;;;;;;5092060;28;20078;-63
2022/12/10 05:31:32;;;;;;;97.97;39.85;;;-1.70;99.90;;;;;;5092331;28;20024;-63
2022/12/10 05:33:58;;;;;;;113.32;42.95;;;-1.80;99.90;;;;;;5091684;28;20138;-62
2022/12/10 05:36:26;;;;;;;103.50;38.53;;;-1.80;99.90;;;;;;5091779;28;20055;-61
2022/12/10 05:38:53;;;;;;;108.85;37.97;;;-1.80;99.90;;;;;;5092084;28;20075;-63
2022/12/10 05:41:21;;;;;;;95.22;35.13;;;-1.80;99.90;;;;;;5094615;28;20398;-62
2022/12/10 05:43:48;;;;;;;89.00;32.97;;;-1.80;99.90;;;;;;5093176;28;20024;-63
2022/12/10 05:46:18;;;;;;;89.50;33.90;;;-1.80;99.90;;;;;;5094413;28;20028;-62
2022/12/10 05:48:43;;;;;;;;;;;-1.70;99.90;;;;;;5095118;28;20590;-63
2022/12/10 05:51:15;;;;;;;104.10;39.97;;;-1.80;99.90;;;;;;5091758;28;19908;-62
2022/12/10 05:53:41;;;;;;;99.85;38.53;;;-1.80;99.90;;;;;;5091656;28;20085;-62
2022/12/10 05:56:18;;;;;;;88.93;36.20;;;-1.90;99.90;;;;;;5091557;28;20032;-62
2022/12/10 05:58:44;;;;;;;84.85;32.22;;;-1.80;99.90;;;;;;5091815;28;20069;-63
2022/12/10 06:01:13;;;;;;;83.80;33.72;;;-1.80;99.90;;;;;;5091486;28;20028;-63
2022/12/10 06:03:39;;;;;;;81.45;30.60;;;-1.80;99.90;;;;;;5092986;28;20051;-62
2022/12/10 06:06:05;;;;;;;80.78;29.08;;;-1.80;99.90;;;;;;5091321;28;20488;-62
2022/12/10 06:08:31;;;;;;;76.30;27.83;;;-1.70;99.90;;;;;;5091237;28;20024;-62
2022/12/10 06:11:00;;;;;;;78.03;30.05;;;-1.70;99.90;;;;;;5093149;28;20012;-62
2022/12/10 06:13:25;;;;;;;82.35;30.50;;;-1.70;99.90;;;;;;5097258;28;20500;-62
2022/12/10 06:15:51;;;;;;;80.78;33.08;;;-1.70;99.90;;;;;;5091130;28;20032;-63
2022/12/10 06:18:16;;;;;;;82.50;31.00;;;-1.70;99.90;;;;;;5077117;28;20376;-63
2022/12/10 06:20:42;;;;;;;86.65;30.75;;;-1.70;99.90;;;;;;5075482;28;20028;-63
2022/12/10 06:23:07;;;;;;;88.20;31.92;;;-1.70;99.90;;;;;;5095956;28;20502;-62
2022/12/10 06:25:33;;;;;;;94.40;35.97;;;-1.70;99.90;;;;;;5090812;28;20024;-62
2022/12/10 06:27:59;;;;;;;106.05;40.97;;;-1.70;99.90;;;;;;5091673;28;20028;-63
2022/12/10 06:30:24;;;;;;;97.15;35.13;;;-1.70;99.90;;;;;;5087186;28;20496;-62
2022/12/10 06:32:50;;;;;;;95.18;34.38;;;-1.80;99.90;;;;;;5111941;28;20084;-62
2022/12/10 06:35:16;;;;;;;105.75;36.40;;;-1.70;99.90;;;;;;5109577;28;20043;-62
2022/12/10 06:37:41;;;;;;;84.50;31.00;;;-1.70;99.90;;;;;;5102970;28;20420;-62
2022/12/10 06:40:07;;;;;;;80.13;32.13;;;-1.70;99.90;;;;;;5107330;28;20032;-63
2022/12/10 06:42:33;;;;;;;97.72;35.05;;;-1.60;99.90;;;;;;5102122;28;20491;-62
2022/12/10 06:44:58;;;;;;;108.07;38.97;;;-1.60;99.90;;;;;;5100640;28;20023;-63
2022/12/10 06:47:24;;;;;;;112.25;41.55;;;-1.60;99.90;;;;;;5085742;28;20545;-62
2022/12/10 06:49:49;;;;;;;103.15;39.38;;;-1.60;99.90;;;;;;5105834;28;20481;-63
2022/12/10 06:52:15;;;;;;;96.00;35.67;;;-1.70;99.90;;;;;;5108774;28;20016;-62
2022/12/10 06:54:41;;;;;;;105.50;36.92;;;-1.70;99.90;;;;;;5096053;28;20384;-62
2022/12/10 06:57:06;;;;;;;109.25;41.60;;;-1.70;99.90;;;;;;5104616;28;20031;-63
2022/12/10 06:59:32;;;;;;;98.97;36.25;;;-1.60;99.90;;;;;;5106100;28;20505;-63
2022/12/10 07:01:57;;;;;;;97.03;33.70;;;-1.60;99.90;;;;;;5093456;28;20384;-62
2022/12/10 07:04:30;;;;;;;94.38;34.60;;;-1.60;99.90;;;;;;5100966;28;20093;-62
2022/12/10 07:06:56;;;;;;;96.22;34.63;;;-1.60;99.90;;;;;;5108785;28;20034;-62
2022/12/10 07:09:22;;;;;;;96.32;32.58;;;-1.60;99.90;;;;;;5093905;28;20473;-63
2022/12/10 07:11:47;;;;;;;86.05;32.70;;;-1.60;99.90;;;;;;5097480;28;20027;-62
2022/12/10 07:14:17;;;;;;;86.22;30.52;;;-1.60;99.90;;;;;;5095750;28;20039;-62
2022/12/10 07:16:43;;;;;;;88.18;31.75;;;-1.50;99.90;;;;;;5095523;28;20020;-62
2022/12/10 07:19:10;;;;;;;82.95;31.77;;;-1.60;99.90;;;;;;5109497;27;20046;-62
2022/12/10 07:21:38;;;;;;;104.18;32.20;;;-1.50;99.90;;;;;;5104973;28;20370;-63
2022/12/10 07:24:07;;;;;;;96.45;33.42;;;-1.50;99.90;;;;;;5093632;28;20480;-62
2022/12/10 07:26:37;;;;;;;101.05;38.10;;;-1.50;99.90;;;;;;5094104;28;20361;-63
2022/12/10 07:29:04;;;;;;;90.20;32.37;;;-1.50;99.90;;;;;;5076568;28;20020;-61
2022/12/10 07:31:31;;;;;;;88.78;32.63;;;-1.50;99.90;;;;;;5095085;28;20288;-62
2022/12/10 07:33:58;;;;;;;95.25;38.33;;;-1.50;99.90;;;;;;5093085;28;20547;-62
2022/12/10 07:36:24;;;;;;;112.68;41.15;;;-1.50;99.90;;;;;;5093655;28;20032;-62
2022/12/10 07:38:51;;;;;;;105.10;39.63;;;-1.50;99.90;;;;;;5102283;28;20031;-61
2022/12/10 07:41:16;;;;;;;117.55;44.25;;;-1.60;99.90;;;;;;5107466;28;20628;-62
2022/12/10 07:43:43;;;;;;;98.15;33.83;;;-1.60;99.90;;;;;;5110138;28;20062;-63
2022/12/10 07:46:16;;;;;;;99.65;32.22;;;-1.60;99.90;;;;;;5108477;28;20374;-63
2022/12/10 07:48:42;;;;;;;102.15;30.23;;;-1.60;99.90;;;;;;5107661;28;20669;-62
2022/12/10 07:51:08;;;;;;;90.32;33.10;;;-1.60;99.90;;;;;;5106756;27;20028;-63
2022/12/10 07:53:34;;;;;;;98.60;33.45;;;-1.50;99.90;;;;;;5107880;28;20026;-63
2022/12/10 07:56:00;;;;;;;87.68;29.75;;;-1.50;99.90;;;;;;5107629;28;20451;-63
2022/12/10 07:58:26;;;;;;;89.28;28.92;;;-1.50;99.90;;;;;;5098873;28;20080;-63
2022/12/10 08:00:52;;;;;;;94.03;33.65;;;-1.50;99.90;;;;;;5102202;28;20389;-63
2022/12/10 08:03:17;;;;;;;93.90;35.53;;;-1.50;99.90;;;;;;5080244;28;20035;-63
2022/12/10 08:05:43;;;;;;;104.90;36.42;;;-1.50;99.90;;;;;;5093712;28;20476;-63
2022/12/10 08:08:09;;;;;;;95.10;34.90;;;-1.50;99.90;;;;;;5097931;28;20024;-62
2022/12/10 08:10:36;;;;;;;96.32;35.35;;;-1.50;99.90;;;;;;5100494;28;20146;-66
2022/12/10 08:13:01;;;;;;;105.97;36.53;;;-1.60;99.90;;;;;;5092644;27;20393;-65
2022/12/10 08:15:28;;;;;;;95.45;34.53;;;-1.50;99.90;;;;;;5113263;27;20020;-62
2022/12/10 08:17:54;;;;;;;106.97;37.42;;;-1.50;99.90;;;;;;5105796;27;20118;-63
2022/12/10 08:20:19;;;;;;;107.72;38.83;;;-1.50;99.90;;;;;;5103490;28;20484;-63
2022/12/10 08:22:45;;;;;;;99.43;34.67;;;-1.50;99.90;;;;;;5087556;28;20031;-63
2022/12/10 08:25:10;;;;;;;105.97;36.55;;;-1.50;99.90;;;;;;5097100;28;20024;-63
2022/12/10 08:27:36;;;;;;;100.20;34.80;;;-1.50;99.90;;;;;;5100560;28;20091;-63
2022/12/10 08:30:02;;;;;;;92.65;34.53;;;-1.50;99.90;;;;;;5092197;28;20020;-63
2022/12/10 08:32:27;;;;;;;102.50;36.65;;;-1.50;99.90;;;;;;5091984;28;20020;-63
2022/12/10 08:34:53;;;;;;;99.72;35.28;;;-1.40;99.90;;;;;;5092046;28;20048;-63
2022/12/10 08:37:19;;;;;;;109.45;37.63;;;-1.40;99.90;;;;;;5104300;28;20016;-63
2022/12/10 08:39:44;;;;;;;106.15;36.28;;;-1.40;99.90;;;;;;5108293;28;20477;-62
2022/12/10 08:42:09;;;;;;;99.55;34.00;;;-1.40;99.90;;;;;;5090531;28;20024;-63
2022/12/10 08:44:35;;;;;;;101.25;32.50;;;-1.40;99.90;;;;;;5103065;28;20427;-62
2022/12/10 08:47:01;;;;;;;110.43;35.17;;;-1.30;99.90;;;;;;5101704;28;20028;-62
2022/12/10 08:49:26;;;;;;;115.25;36.47;;;-1.30;99.90;;;;;;5092304;28;20098;-63
2022/12/10 08:51:52;;;;;;;107.18;37.08;;;-1.30;99.90;;;;;;5093200;28;20077;-63
2022/12/10 08:54:17;;;;;;;107.50;38.13;;;-1.30;99.90;;;;;;5099160;27;20024;-62
2022/12/10 08:56:43;;;;;;;116.30;39.85;;;-1.30;99.90;;;;;;5108881;27;20498;-63
2022/12/10 08:59:08;;;;;;;114.05;38.55;;;-1.30;99.90;;;;;;5108015;28;20024;-63
2022/12/10 09:01:34;;;;;;;101.78;37.17;;;-1.30;99.90;;;;;;5105523;28;20038;-62
2022/12/10 09:04:00;;;;;;;105.60;36.10;;;-1.30;99.90;;;;;;5099269;27;20030;-63
2022/12/10 09:06:27;;;;;;;91.55;32.30;;;-1.30;99.90;;;;;;5109932;27;20531;-63
2022/12/10 09:08:52;;;;;;;87.35;32.33;;;-1.30;99.90;;;;;;5100819;27;20103;-62
2022/12/10 09:11:21;;;;;;;106.50;35.47;;;-1.30;99.90;;;;;;5098885;28;20137;-63
2022/12/10 09:13:46;;;;;;;101.05;36.35;;;-1.30;99.90;;;;;;5098608;28;20034;-63
2022/12/10 09:16:13;;;;;;;94.80;33.72;;;-1.20;99.90;;;;;;5105667;27;20032;-63
2022/12/10 09:18:38;;;;;;;98.53;33.30;;;-1.20;99.90;;;;;;5124923;27;20576;-63
2022/12/10 09:21:09;;;;;;;96.82;33.22;;;-1.20;99.90;;;;;;5106614;27;20036;-63
2022/12/10 09:23:35;;;;;;;89.55;33.00;;;-1.10;99.90;;;;;;5103095;27;20024;-63
2022/12/10 09:26:00;;;;;;;88.45;31.05;;;-1.10;99.90;;;;;;5098990;28;20114;-63
2022/12/10 09:28:26;;;;;;;84.90;31.05;;;-1.10;99.90;;;;;;5098252;27;20048;-63
2022/12/10 09:30:56;;;;;;;84.18;33.33;;;-1.10;99.90;;;;;;5110181;27;20012;-63
2022/12/10 09:33:22;;;;;;;106.40;37.25;;;-1.00;99.90;;;;;;5101224;27;20397;-62
2022/12/10 09:35:47;;;;;;;95.32;33.50;;;-1.10;99.90;;;;;;5098694;28;20492;-62
2022/12/10 09:38:13;;;;;;;93.45;32.38;;;-1.10;99.90;;;;;;5102320;27;20023;-63
2022/12/10 09:40:49;;;;;;;85.25;31.23;;;-1.10;99.90;;;;;;5123613;27;20024;-62
2022/12/10 09:43:27;;;;;;;94.88;33.58;;;-1.10;99.90;;;;;;5098235;27;20114;-63
2022/12/10 09:45:59;;;;;;;90.22;35.10;;;-1.10;99.90;;;;;;5098845;27;20471;-63
2022/12/10 09:49:11;;;;;;;101.85;36.75;;;-1.10;99.90;;;;;;5088634;27;20023;-64
2022/12/10 09:51:37;;;;;;;93.50;29.88;;;-1.00;99.90;;;;;;5028140;28;20037;-63
2022/12/10 09:54:22;;;;;;;85.82;29.90;;;-1.10;99.90;;;;;;5097141;28;20046;-63
2022/12/10 09:56:49;;;;;;;89.20;33.30;;;-1.00;99.90;;;;;;5097598;27;20377;-63
2022/12/10 09:59:29;;;;;;;91.30;32.58;;;-1.10;99.90;;;;;;5097467;27;20546;-63
2022/12/10 10:02:22;;;;;;;91.03;29.10;;;-1.10;99.90;;;;;;5103524;28;20106;-63
2022/12/10 10:04:54;;;;;;;84.95;28.70;;;-1.00;99.90;;;;;;5100736;28;20038;-64
2022/12/10 10:07:24;;;;;;;87.88;28.75;;;-1.00;99.90;;;;;;5106299;27;20031;-64
2022/12/10 10:09:54;;;;;;;77.53;28.70;;;-0.90;99.90;;;;;;5104922;28;20020;-63
2022/12/10 10:12:20;;;;;;;82.38;29.77;;;-0.90;99.90;;;;;;5107499;28;20119;-62
2022/12/10 10:14:46;;;;;;;79.50;29.33;;;-0.80;99.90;;;;;;5088323;27;20405;-64
2022/12/10 10:17:21;;;;;;;87.07;29.88;;;-0.80;99.90;;;;;;5076381;27;20024;-63
2022/12/10 10:19:47;;;;;;;93.57;33.47;;;-0.80;99.90;;;;;;5124192;27;20047;-63
2022/12/10 10:22:12;;;;;;;103.40;36.42;;;-0.80;99.90;;;;;;5110731;28;20400;-63
2022/12/10 10:24:47;;;;;;;97.65;34.47;;;-0.80;99.90;;;;;;5099907;28;20481;-63
2022/12/10 10:27:19;;;;;;;96.68;35.55;;;-0.80;99.90;;;;;;5110123;27;20469;-64
2022/12/10 10:29:47;;;;;;;90.35;31.58;;;-0.80;99.90;;;;;;5106656;28;20094;-63
2022/12/10 10:32:39;;;;;;;88.68;31.73;;;-0.90;99.90;;;;;;5094359;28;20043;-64
2022/12/10 10:35:05;;;;;;;92.60;33.08;;;-0.80;99.90;;;;;;5101970;28;20390;-63
2022/12/10 10:37:40;;;;;;;100.63;37.75;;;-0.80;99.90;;;;;;5079220;28;20043;-63
2022/12/10 10:40:21;;;;;;;107.65;38.22;;;-0.80;99.90;;;;;;5107625;28;20458;-63
2022/12/10 10:42:47;;;;;;;113.10;38.25;;;-0.80;99.90;;;;;;5089401;28;20093;-63
2022/12/10 10:45:36;;;;;;;114.22;38.50;;;-0.80;99.90;;;;;;5093932;28;20691;-63
2022/12/10 10:48:20;;;;;;;113.70;38.03;;;-0.80;99.90;;;;;;5094071;28;20484;-63
2022/12/10 10:50:52;;;;;;;100.72;35.78;;;-0.80;99.90;;;;;;5094106;28;20050;-63
2022/12/10 10:53:22;;;;;;;105.07;35.58;;;-0.80;99.90;;;;;;5109312;27;20594;-63
2022/12/10 10:55:47;;;;;;;99.75;35.47;;;-0.80;99.90;;;;;;5104198;28;20449;-63
2022/12/10 10:58:20;;;;;;;102.30;35.80;;;-0.80;99.90;;;;;;5113787;28;20028;-63
2022/12/10 11:01:01;;;;;;;91.82;31.45;;;-0.80;99.90;;;;;;5107284;28;20073;-62
2022/12/10 11:03:30;;;;;;;88.75;30.55;;;-0.70;99.90;;;;;;5099510;28;20080;-63
2022/12/10 11:05:58;;;;;;;99.13;35.35;;;-0.70;99.90;;;;;;5103821;28;20083;-63
2022/12/10 11:08:27;;;;;;;91.82;32.05;;;-0.70;99.90;;;;;;5101215;28;20503;-63
2022/12/10 11:11:02;;;;;;;110.68;37.40;;;-0.60;99.90;;;;;;5094961;28;20061;-62
2022/12/10 11:13:31;;;;;;;98.68;36.78;;;-0.60;99.90;;;;;;5105245;28;20177;-63
2022/12/10 11:16:01;;;;;;;102.93;35.80;;;-0.60;99.90;;;;;;5100167;28;20030;-63
2022/12/10 11:18:35;;;;;;;96.13;35.80;;;-0.70;99.90;;;;;;5107304;27;20063;-63
2022/12/10 11:21:06;;;;;;;97.72;33.67;;;-0.70;99.90;;;;;;5096014;28;20313;-63
2022/12/10 11:23:46;;;;;;;108.03;39.00;;;-0.70;99.90;;;;;;5105861;28;20059;-63
2022/12/10 11:26:29;;;;;;;104.63;37.83;;;-0.60;99.90;;;;;;5096863;28;20020;-63
2022/12/10 11:28:54;;;;;;;102.60;37.95;;;-0.60;99.90;;;;;;5096176;28;20099;-62
2022/12/10 11:31:42;;;;;;;97.72;34.30;;;-0.70;99.90;;;;;;5106149;28;20098;-63
2022/12/10 11:34:20;;;;;;;92.07;33.20;;;-0.70;99.90;;;;;;5105700;28;20032;-63
2022/12/10 11:36:56;;;;;;;84.70;29.77;;;-0.60;99.90;;;;;;5097655;28;20124;-63
2022/12/10 11:40:09;;;;;;;97.13;32.70;;;-0.60;99.90;;;;;;5106124;28;20034;-64
2022/12/10 11:42:43;;;;;;;82.10;28.40;;;-0.50;99.90;;;;;;5098880;28;20099;-62
2022/12/10 11:45:50;;;;;;;81.68;26.30;;;-0.50;99.90;;;;;;5077903;28;20028;-62
2022/12/10 11:48:35;;;;;;;72.45;24.02;;;-0.40;99.90;;;;;;5084424;28;20028;-62
2022/12/10 11:51:05;;;;;;;84.88;28.65;;;-0.40;99.90;;;;;;5105198;28;20416;-63
2022/12/10 11:53:51;;;;;;;82.43;27.70;;;-0.30;99.90;;;;;;5110441;28;20016;-63
2022/12/10 11:56:25;;;;;;;88.22;30.33;;;-0.30;99.90;;;;;;5108616;28;20111;-63
2022/12/10 11:59:00;;;;;;;91.32;31.38;;;-0.30;99.90;;;;;;5102964;28;20258;-63
2022/12/10 12:01:50;;;;;;;81.45;28.20;;;-0.30;99.90;;;;;;5108050;28;20028;-63
2022/12/10 12:04:33;;;;;;;81.90;28.27;;;-0.30;99.90;;;;;;5087397;28;20024;-63
2022/12/10 12:07:07;;;;;;;81.32;29.17;;;-0.30;99.90;;;;;;5105476;28;20059;-63
2022/12/10 12:10:16;;;;;;;81.07;29.48;;;-0.30;99.90;;;;;;5082816;28;20020;-63
2022/12/10 12:12:57;;;;;;;75.22;26.70;;;-0.30;99.90;;;;;;5118174;27;20107;-63
2022/12/10 12:15:31;;;;;;;78.15;27.33;;;-0.30;99.90;;;;;;5106624;28;20110;-63
2022/12/10 12:18:18;;;;;;;85.60;31.13;;;-0.30;99.90;;;;;;5110914;28;20051;-63
2022/12/10 12:20:53;;;;;;;87.18;28.58;;;-0.30;99.90;;;;;;5087514;28;20016;-62
2022/12/10 12:23:28;;;;;;;88.85;29.67;;;-0.30;99.90;;;;;;5106290;28;20059;-62
2022/12/10 12:26:01;;;;;;;90.95;31.77;;;-0.20;99.90;;;;;;5087509;28;20021;-62
2022/12/10 12:28:43;;;;;;;102.68;35.33;;;-0.20;99.90;;;;;;5105675;28;20439;-62
2022/12/10 12:31:13;;;;;;;91.78;33.35;;;-0.20;99.90;;;;;;5107251;28;20016;-63
2022/12/10 12:33:49;;;;;;;97.85;34.78;;;-0.30;99.90;;;;;;5078572;28;20039;-62
2022/12/10 12:36:18;;;;;;;97.13;33.78;;;-0.30;99.90;;;;;;5104698;28;20032;-63
2022/12/10 12:39:21;;;;;;;98.97;34.00;;;-0.30;99.90;;;;;;5104755;28;20073;-63
2022/12/10 12:41:47;;;;;;;91.25;31.50;;;-0.40;99.90;;;;;;5107081;28;20027;-63
2022/12/10 12:44:30;;;;;;;90.22;30.15;;;-0.40;99.90;;;;;;5109848;28;20092;-63
2022/12/10 12:46:59;;;;;;;70.10;25.05;;;-0.40;99.90;;;;;;5097060;28;20099;-63
2022/12/10 12:49:36;;;;;;;65.30;24.33;;;-0.30;99.90;;;;;;5097155;28;20020;-63
2022/12/10 12:52:18;;;;;;;64.85;21.98;;;-0.20;99.90;;;;;;5073990;28;20024;-63